Time;durP1;ratioP1;P1;durP2;ratioP2;P2;SDS_P1;SDS_P2;PMS_P1;PMS_P2;Temp;Humidity;BMP_temperature;BMP_pressure;BME280_temperature;BME280_humidity;BME280_pressure;Samples;Min_cycle;Max_cycle;Signal;HPM_P1;HPM_P2
2022/04/14 00:00:35;;;;;;;0.88;0.88;;;13.10;99.90;;;;;;4430598;32;20070;-68
2022/04/14 00:03:01;;;;;;;1.58;1.48;;;13.10;99.90;;;;;;4431228;32;20061;-69
2022/04/14 00:05:26;;;;;;;1.40;0.93;;;13.00;99.90;;;;;;4431527;32;20097;-68
2022/04/14 00:07:52;;;;;;;1.83;1.00;;;12.90;99.90;;;;;;4430820;32;20065;-69
2022/04/14 00:10:17;;;;;;;8.13;1.45;;;12.80;99.90;;;;;;4429738;32;20083;-68
2022/04/14 00:12:43;;;;;;;1.25;0.77;;;12.70;99.90;;;;;;4421572;32;20081;-68
2022/04/14 00:15:11;;;;;;;2.15;1.58;;;12.60;99.90;;;;;;4423461;32;20081;-68
2022/04/14 00:17:36;;;;;;;2.60;1.20;;;12.70;99.90;;;;;;4428530;32;20034;-69
2022/04/14 00:20:06;;;;;;;0.93;0.93;;;12.70;99.90;;;;;;4429744;32;20105;-69
2022/04/14 00:22:31;;;;;;;1.27;0.85;;;12.70;99.90;;;;;;4431186;32;20086;-69
2022/04/14 00:24:57;;;;;;;7.32;1.05;;;12.80;99.90;;;;;;4428248;32;20123;-69
2022/04/14 00:27:22;;;;;;;0.73;0.70;;;12.70;99.90;;;;;;4428281;32;20069;-69
2022/04/14 00:29:48;;;;;;;1.17;1.08;;;12.70;99.90;;;;;;4428048;32;20057;-68
2022/04/14 00:32:13;;;;;;;0.80;0.80;;;12.70;99.90;;;;;;4430064;32;20074;-69
2022/04/14 00:34:39;;;;;;;0.80;0.80;;;12.70;99.90;;;;;;4427848;32;20104;-69
2022/04/14 00:37:04;;;;;;;3.55;2.03;;;12.70;99.90;;;;;;4427825;32;20065;-69
2022/04/14 00:39:31;;;;;;;1.15;0.95;;;12.70;99.90;;;;;;4428490;32;20061;-68
2022/04/14 00:41:56;;;;;;;0.57;0.57;;;12.60;99.90;;;;;;4430351;32;20065;-69
2022/04/14 00:44:22;;;;;;;3.03;1.25;;;12.50;99.90;;;;;;4428121;32;20139;-69
2022/04/14 00:46:48;;;;;;;0.93;0.88;;;12.40;99.90;;;;;;4431058;32;20061;-68
2022/04/14 00:49:13;;;;;;;0.73;0.73;;;12.40;99.90;;;;;;4423448;32;20066;-69
2022/04/14 00:51:39;;;;;;;1.23;0.93;;;12.50;99.90;;;;;;4426854;32;20070;-69
2022/04/14 00:54:04;;;;;;;0.70;0.70;;;12.50;99.90;;;;;;4427289;32;20089;-69
2022/04/14 00:56:30;;;;;;;2.85;1.48;;;12.50;99.90;;;;;;4426303;32;20461;-69
2022/04/14 00:58:55;;;;;;;9.63;0.90;;;12.40;99.90;;;;;;4427102;32;20310;-69
2022/04/14 01:01:21;;;;;;;2.62;1.62;;;12.20;99.90;;;;;;4428617;32;20137;-69
2022/04/14 01:03:48;;;;;;;0.75;0.65;;;12.10;99.90;;;;;;4417789;32;20077;-68
2022/04/14 01:06:15;;;;;;;0.82;0.82;;;12.10;99.90;;;;;;4427048;32;20089;-69
2022/04/14 01:09:16;;;;;;;4.82;2.67;;;12.00;99.90;;;;;;4427717;32;20433;-68
2022/04/14 01:11:29;;;;;;;2.35;1.27;;;12.10;99.90;;;;;;4419492;32;20077;-68
2022/04/14 01:13:54;;;;;;;0.57;0.57;;;12.10;99.90;;;;;;4427134;32;20423;-69
2022/04/14 01:16:20;;;;;;;2.20;1.15;;;12.20;99.90;;;;;;4427275;32;20082;-69
2022/04/14 01:18:45;;;;;;;2.72;1.17;;;12.10;99.90;;;;;;4430131;32;20073;-70
2022/04/14 01:21:11;;;;;;;0.65;0.60;;;12.00;99.90;;;;;;4430122;32;20154;-69
2022/04/14 01:23:42;;;;;;;0.80;0.80;;;11.90;99.90;;;;;;4420968;32;20073;-69
2022/04/14 01:26:08;;;;;;;;;;;11.90;99.90;;;;;;4430061;32;20077;-69
2022/04/14 01:28:33;;;;;;;0.70;0.70;;;11.80;99.90;;;;;;4428661;32;20012;-69
2022/04/14 01:30:58;;;;;;;0.95;0.73;;;11.80;99.90;;;;;;4431759;32;20033;-70
2022/04/14 01:33:24;;;;;;;0.73;0.70;;;11.80;99.90;;;;;;4430731;32;20181;-69
2022/04/14 01:35:49;;;;;;;1.73;1.50;;;12.00;99.90;;;;;;4429411;32;20077;-69
2022/04/14 01:38:15;;;;;;;1.62;0.68;;;11.90;99.90;;;;;;4426969;32;20553;-69
2022/04/14 01:40:41;;;;;;;0.90;0.55;;;11.70;99.90;;;;;;4429929;32;20098;-69
2022/04/14 01:43:06;;;;;;;1.35;0.85;;;11.60;99.90;;;;;;4430398;32;20049;-69
2022/04/14 01:45:32;;;;;;;4.25;1.58;;;11.60;99.90;;;;;;4428927;32;20101;-69
2022/04/14 01:47:57;;;;;;;1.77;1.30;;;11.80;99.90;;;;;;4428122;32;20450;-69
2022/04/14 01:50:23;;;;;;;0.93;0.70;;;11.70;99.90;;;;;;4428228;32;20081;-69
2022/04/14 01:52:48;;;;;;;2.03;1.45;;;11.60;99.90;;;;;;4430738;32;20098;-69
2022/04/14 01:55:14;;;;;;;0.80;0.80;;;11.50;99.90;;;;;;4428493;32;20084;-69
2022/04/14 01:57:40;;;;;;;1.98;1.08;;;11.40;99.90;;;;;;4428302;32;20090;-69
2022/04/14 02:00:07;;;;;;;4.40;1.77;;;11.40;99.90;;;;;;4428089;32;20065;-69
2022/04/14 02:02:33;;;;;;;2.72;0.73;;;11.30;99.90;;;;;;4429844;32;20053;-69
2022/04/14 02:04:59;;;;;;;0.98;0.80;;;11.20;99.90;;;;;;4429417;32;20150;-69
2022/04/14 02:07:24;;;;;;;1.27;1.10;;;11.30;99.90;;;;;;4430707;32;20105;-70
2022/04/14 02:09:49;;;;;;;2.97;0.90;;;11.30;99.90;;;;;;4429448;32;20061;-70
2022/04/14 02:12:15;;;;;;;0.80;0.80;;;11.40;99.90;;;;;;4429622;32;20117;-70
2022/04/14 02:14:41;;;;;;;1.17;1.00;;;11.50;99.90;;;;;;4429015;32;20057;-69
2022/04/14 02:17:08;;;;;;;0.57;0.57;;;11.70;99.90;;;;;;4427202;32;20113;-69
2022/04/14 02:19:34;;;;;;;0.85;0.80;;;11.60;99.90;;;;;;4427120;32;20089;-70
2022/04/14 02:21:59;;;;;;;1.00;0.95;;;11.40;99.90;;;;;;4430138;32;20081;-69
2022/04/14 02:24:26;;;;;;;0.80;0.80;;;11.40;99.90;;;;;;4429747;32;20127;-69
2022/04/14 02:26:53;;;;;;;0.80;0.80;;;11.20;99.90;;;;;;4428068;32;20085;-69
2022/04/14 02:29:19;;;;;;;5.93;1.80;;;11.10;99.90;;;;;;4427000;32;20073;-69
2022/04/14 02:31:44;;;;;;;1.27;1.17;;;11.10;99.90;;;;;;4428755;32;20077;-69
2022/04/14 02:34:10;;;;;;;0.70;0.70;;;11.00;99.90;;;;;;4430295;32;20456;-69
2022/04/14 02:36:35;;;;;;;15.55;2.55;;;11.10;99.90;;;;;;4428342;32;20107;-69
2022/04/14 02:39:01;;;;;;;1.30;0.93;;;11.00;99.90;;;;;;4428709;32;20069;-69
2022/04/14 02:41:26;;;;;;;1.50;1.08;;;10.90;99.90;;;;;;4430788;32;20121;-69
2022/04/14 02:43:52;;;;;;;1.08;0.98;;;11.00;99.90;;;;;;4428822;32;20081;-69
2022/04/14 02:46:17;;;;;;;0.73;0.68;;;11.20;99.90;;;;;;4430281;32;20227;-69
2022/04/14 02:48:43;;;;;;;2.37;1.33;;;11.30;99.90;;;;;;4427671;32;20065;-69
2022/04/14 02:51:08;;;;;;;0.65;0.65;;;11.10;99.90;;;;;;4422791;32;20057;-68
2022/04/14 02:53:34;;;;;;;1.37;0.93;;;11.20;99.90;;;;;;4429372;32;20418;-68
2022/04/14 02:55:59;;;;;;;1.23;1.12;;;11.40;99.90;;;;;;4430015;32;20073;-70
2022/04/14 02:58:25;;;;;;;1.05;0.95;;;11.40;99.90;;;;;;4430386;32;20082;-70
2022/04/14 03:00:50;;;;;;;1.30;1.20;;;11.40;99.90;;;;;;4428757;32;20076;-70
2022/04/14 03:03:16;;;;;;;1.45;1.35;;;11.20;99.90;;;;;;4426143;32;20073;-69
2022/04/14 03:05:42;;;;;;;1.62;0.95;;;11.10;99.90;;;;;;4422512;32;20093;-68
2022/04/14 03:08:08;;;;;;;0.82;0.77;;;11.10;99.90;;;;;;4426306;32;20120;-69
2022/04/14 03:10:33;;;;;;;0.60;0.60;;;11.20;99.90;;;;;;4426961;32;20058;-70
2022/04/14 03:12:59;;;;;;;1.33;0.70;;;11.30;99.90;;;;;;4428747;32;20354;-69
2022/04/14 03:15:25;;;;;;;1.50;1.40;;;11.30;99.90;;;;;;4427261;32;20530;-68
2022/04/14 03:17:50;;;;;;;0.90;0.73;;;11.30;99.90;;;;;;4424898;32;20070;-69
2022/04/14 03:20:16;;;;;;;1.48;1.37;;;11.30;99.90;;;;;;4430419;32;20453;-69
2022/04/14 03:22:42;;;;;;;0.43;0.43;;;11.30;99.90;;;;;;4429248;32;20066;-69
2022/04/14 03:25:10;;;;;;;0.60;0.57;;;11.40;99.90;;;;;;4426872;32;20510;-69
2022/04/14 03:27:37;;;;;;;0.75;0.75;;;11.30;99.90;;;;;;4430713;32;20469;-69
2022/04/14 03:30:04;;;;;;;3.40;0.85;;;11.40;99.90;;;;;;4429416;32;20121;-70
2022/04/14 03:32:30;;;;;;;1.10;0.80;;;11.40;99.90;;;;;;4430013;32;20093;-69
2022/04/14 03:34:55;;;;;;;1.75;1.25;;;11.50;99.90;;;;;;4426902;32;20130;-69
2022/04/14 03:37:21;;;;;;;1.10;1.05;;;11.60;99.90;;;;;;4430001;32;20088;-70
2022/04/14 03:39:47;;;;;;;1.10;1.00;;;11.80;99.90;;;;;;4426885;32;20053;-69
2022/04/14 03:42:12;;;;;;;2.12;1.17;;;11.90;99.90;;;;;;4427560;32;20069;-70
2022/04/14 03:44:39;;;;;;;0.73;0.73;;;12.00;99.90;;;;;;4428202;32;20112;-69
2022/04/14 03:47:05;;;;;;;1.67;1.37;;;12.20;99.90;;;;;;4429243;32;20098;-69
2022/04/14 03:49:30;;;;;;;1.17;1.05;;;12.20;99.90;;;;;;4427434;32;20093;-69
2022/04/14 03:51:56;;;;;;;6.75;1.77;;;12.30;99.90;;;;;;4428984;32;20085;-69
2022/04/14 03:54:22;;;;;;;1.33;1.23;;;12.30;99.90;;;;;;4427699;32;20057;-69
2022/04/14 03:56:48;;;;;;;2.83;1.60;;;12.30;99.90;;;;;;4429703;32;20123;-69
2022/04/14 03:59:14;;;;;;;1.55;1.45;;;12.30;99.90;;;;;;4430782;32;20210;-69
2022/04/14 04:01:40;;;;;;;1.00;0.90;;;12.30;99.90;;;;;;4425267;32;20073;-69
2022/04/14 04:04:06;;;;;;;0.68;0.68;;;12.30;99.90;;;;;;4425802;32;20315;-69
2022/04/14 04:06:31;;;;;;;4.35;0.95;;;12.30;99.90;;;;;;4429607;32;20081;-70
2022/04/14 04:08:57;;;;;;;2.45;1.65;;;12.40;99.90;;;;;;4423406;32;20054;-70
2022/04/14 04:11:22;;;;;;;0.60;0.60;;;12.40;99.90;;;;;;4427890;32;20081;-69
2022/04/14 04:13:48;;;;;;;1.48;0.62;;;12.40;99.90;;;;;;4427931;32;20074;-69
2022/04/14 04:16:13;;;;;;;1.17;1.10;;;12.40;99.90;;;;;;4429651;32;20066;-69
2022/04/14 04:18:39;;;;;;;0.62;0.62;;;12.50;99.90;;;;;;4425606;32;20061;-69
2022/04/14 04:21:04;;;;;;;0.60;0.60;;;12.50;99.90;;;;;;4427692;32;20497;-69
2022/04/14 04:23:31;;;;;;;1.98;0.93;;;12.60;99.90;;;;;;4430839;32;20116;-70
2022/04/14 04:25:57;;;;;;;1.65;0.95;;;12.60;99.90;;;;;;4429561;32;20117;-70
2022/04/14 04:28:22;;;;;;;1.17;0.70;;;12.60;99.90;;;;;;4426990;32;20069;-70
2022/04/14 04:30:48;;;;;;;1.23;0.70;;;12.60;99.90;;;;;;4429826;32;20076;-69
2022/04/14 04:33:14;;;;;;;1.02;0.68;;;12.60;99.90;;;;;;4425558;32;20074;-69
2022/04/14 04:35:39;;;;;;;1.20;1.08;;;12.60;99.90;;;;;;4429379;32;20111;-69
2022/04/14 04:38:05;;;;;;;5.35;2.10;;;12.60;99.90;;;;;;4429066;32;20137;-69
2022/04/14 04:40:30;;;;;;;1.35;1.20;;;12.60;99.90;;;;;;4429436;32;20089;-69
2022/04/14 04:42:56;;;;;;;1.00;0.98;;;12.50;99.90;;;;;;4429432;32;20076;-70
2022/04/14 04:45:21;;;;;;;3.40;0.95;;;12.50;99.90;;;;;;4428848;32;20089;-70
2022/04/14 04:47:47;;;;;;;1.67;0.90;;;12.60;99.90;;;;;;4426610;32;20582;-69
2022/04/14 04:50:12;;;;;;;0.70;0.68;;;12.60;99.90;;;;;;4428745;32;20061;-69
2022/04/14 04:52:38;;;;;;;3.50;1.62;;;12.80;99.90;;;;;;4431552;32;20403;-69
2022/04/14 04:55:03;;;;;;;0.70;0.70;;;12.80;99.90;;;;;;4430723;32;20082;-69
2022/04/14 04:57:29;;;;;;;3.90;1.17;;;12.70;99.90;;;;;;4432422;32;20156;-69
2022/04/14 04:59:56;;;;;;;1.48;0.93;;;12.60;99.90;;;;;;4429944;32;20065;-69
2022/04/14 05:02:21;;;;;;;0.50;0.50;;;12.60;99.90;;;;;;4428819;32;20085;-69
2022/04/14 05:04:46;;;;;;;2.47;1.00;;;12.60;99.90;;;;;;4430055;32;20129;-70
2022/04/14 05:07:12;;;;;;;2.60;1.02;;;12.50;99.90;;;;;;4429988;32;20061;-69
2022/04/14 05:09:38;;;;;;;0.93;0.65;;;12.60;99.90;;;;;;4432058;32;20578;-69
2022/04/14 05:12:04;;;;;;;0.65;0.65;;;12.70;99.90;;;;;;4424479;32;20069;-70
2022/04/14 05:14:31;;;;;;;0.70;0.70;;;12.80;99.90;;;;;;4420907;32;20077;-69
2022/04/14 05:16:56;;;;;;;1.50;0.93;;;12.80;99.90;;;;;;4427534;32;20129;-70
2022/04/14 05:19:22;;;;;;;1.25;0.82;;;12.80;99.90;;;;;;4422359;32;20464;-69
2022/04/14 05:21:48;;;;;;;2.70;0.47;;;12.90;99.90;;;;;;4431436;32;20061;-69
2022/04/14 05:24:15;;;;;;;0.45;0.45;;;12.90;99.90;;;;;;4432142;32;20074;-69
2022/04/14 05:26:41;;;;;;;0.40;0.40;;;12.90;99.90;;;;;;4428952;32;20093;-69
2022/04/14 05:29:09;;;;;;;0.40;0.40;;;12.90;99.90;;;;;;4430166;32;20066;-69
2022/04/14 05:31:35;;;;;;;0.40;0.40;;;13.00;99.90;;;;;;4433039;32;20069;-69
2022/04/14 05:34:00;;;;;;;2.92;1.45;;;13.00;99.90;;;;;;4430769;32;20401;-70
2022/04/14 05:36:26;;;;;;;0.65;0.60;;;13.00;99.90;;;;;;4431213;32;20097;-68
2022/04/14 05:38:51;;;;;;;0.52;0.50;;;13.00;99.90;;;;;;4432678;32;20085;-69
2022/04/14 05:41:17;;;;;;;0.40;0.40;;;13.10;99.90;;;;;;4430858;32;20066;-69
2022/04/14 05:43:42;;;;;;;2.08;1.10;;;13.10;99.90;;;;;;4424959;32;20088;-69
2022/04/14 05:46:08;;;;;;;0.95;0.62;;;13.20;99.90;;;;;;4430078;32;20075;-69
2022/04/14 05:48:34;;;;;;;0.70;0.70;;;13.20;99.90;;;;;;4428872;32;20098;-69
2022/04/14 05:51:00;;;;;;;0.50;0.50;;;13.20;99.90;;;;;;4432023;32;20075;-69
2022/04/14 05:53:26;;;;;;;3.72;1.85;;;13.30;99.90;;;;;;4430913;32;20069;-69
2022/04/14 05:55:52;;;;;;;0.85;0.70;;;13.30;99.90;;;;;;4427743;32;20593;-69
2022/04/14 05:58:18;;;;;;;1.65;0.80;;;13.40;99.90;;;;;;4430269;32;20088;-69
2022/04/14 06:00:43;;;;;;;0.55;0.55;;;13.40;99.90;;;;;;4430571;32;20580;-69
2022/04/14 06:03:09;;;;;;;0.30;0.30;;;13.40;99.90;;;;;;4430289;32;20058;-69
2022/04/14 06:05:35;;;;;;;0.43;0.43;;;13.40;99.90;;;;;;4428962;32;20415;-69
2022/04/14 06:08:01;;;;;;;0.77;0.50;;;13.50;99.90;;;;;;4429831;32;20064;-69
2022/04/14 06:10:28;;;;;;;0.65;0.65;;;13.50;99.90;;;;;;4425161;32;20089;-69
2022/04/14 06:12:55;;;;;;;0.95;0.77;;;13.60;99.90;;;;;;4423839;32;20120;-68
2022/04/14 06:15:21;;;;;;;2.30;1.02;;;13.60;99.90;;;;;;4431249;32;20076;-69
2022/04/14 06:17:46;;;;;;;1.10;0.50;;;13.70;99.90;;;;;;4428107;32;20065;-69
2022/04/14 06:20:13;;;;;;;0.70;0.70;;;13.70;99.90;;;;;;4423397;32;20079;-69
2022/04/14 06:22:40;;;;;;;0.50;0.50;;;13.70;99.90;;;;;;4429606;32;20181;-69
2022/04/14 06:25:12;;;;;;;0.50;0.50;;;13.80;99.90;;;;;;4430150;32;20551;-69
2022/04/14 06:27:45;;;;;;;0.80;0.50;;;13.80;99.90;;;;;;4427582;32;20081;-69
2022/04/14 06:30:13;;;;;;;0.82;0.80;;;13.90;99.90;;;;;;4429084;32;20131;-69
2022/04/14 06:32:39;;;;;;;0.45;0.45;;;13.90;99.90;;;;;;4427765;32;20081;-69
2022/04/14 06:35:06;;;;;;;0.90;0.90;;;13.80;99.90;;;;;;4428750;32;20116;-69
2022/04/14 06:37:33;;;;;;;1.37;1.05;;;13.90;99.90;;;;;;4427149;32;20077;-69
2022/04/14 06:39:58;;;;;;;0.95;0.60;;;14.00;99.90;;;;;;4427608;32;20109;-69
2022/04/14 06:42:24;;;;;;;1.00;0.90;;;14.10;99.90;;;;;;4419920;32;20466;-69
2022/04/14 06:44:50;;;;;;;0.75;0.75;;;14.10;99.90;;;;;;4428525;32;20156;-68
2022/04/14 06:47:16;;;;;;;0.62;0.62;;;14.20;99.90;;;;;;4420732;32;20082;-69
2022/04/14 06:49:41;;;;;;;7.32;1.87;;;14.30;99.90;;;;;;4427939;32;20127;-69
2022/04/14 06:52:07;;;;;;;7.53;1.10;;;14.30;99.90;;;;;;4429397;32;20086;-69
2022/04/14 06:54:33;;;;;;;0.70;0.52;;;14.40;99.90;;;;;;4428016;32;20513;-69
2022/04/14 06:56:59;;;;;;;11.48;1.27;;;14.50;99.90;;;;;;4428375;32;20502;-69
2022/04/14 06:59:24;;;;;;;1.73;0.80;;;14.50;99.90;;;;;;4429453;32;20072;-69
2022/04/14 07:01:50;;;;;;;0.50;0.50;;;14.60;99.90;;;;;;4428674;32;20607;-68
2022/04/14 07:04:15;;;;;;;0.65;0.65;;;14.80;99.90;;;;;;4428887;32;20591;-69
2022/04/14 07:06:40;;;;;;;1.27;1.17;;;14.80;99.90;;;;;;4430102;32;20094;-69
2022/04/14 07:09:06;;;;;;;0.90;0.80;;;14.90;99.90;;;;;;4428893;32;20161;-70
2022/04/14 07:11:31;;;;;;;0.93;0.65;;;15.00;99.90;;;;;;4427564;32;20065;-69
2022/04/14 07:13:58;;;;;;;0.52;0.52;;;15.10;99.90;;;;;;4422993;32;20604;-69
2022/04/14 07:16:25;;;;;;;5.05;0.68;;;15.10;99.90;;;;;;4427747;32;20615;-69
2022/04/14 07:18:50;;;;;;;1.73;0.77;;;15.20;99.90;;;;;;4424934;32;20152;-69
2022/04/14 07:21:16;;;;;;;8.90;1.73;;;15.30;99.90;;;;;;4428372;32;20537;-69
2022/04/14 07:23:41;;;;;;;2.45;1.75;;;15.40;99.90;;;;;;4427734;32;20065;-69
2022/04/14 07:26:07;;;;;;;0.90;0.88;;;15.50;99.90;;;;;;4427154;32;20564;-69
2022/04/14 07:28:32;;;;;;;0.80;0.80;;;15.50;99.90;;;;;;4428031;32;20442;-69
2022/04/14 07:30:58;;;;;;;0.80;0.65;;;15.60;99.90;;;;;;4427938;32;20121;-69
2022/04/14 07:33:23;;;;;;;1.50;0.77;;;15.60;99.90;;;;;;4426998;32;20103;-69
2022/04/14 07:37:08;;;;;;;0.40;0.40;;;15.60;99.90;;;;;;4466056;32;118063;-69
2022/04/14 07:39:33;;;;;;;2.15;1.23;;;15.80;99.90;;;;;;4462558;32;20061;-69
2022/04/14 07:41:59;;;;;;;0.68;0.68;;;15.80;99.90;;;;;;4457153;32;20101;-69
2022/04/14 07:44:24;;;;;;;1.15;1.00;;;15.80;99.90;;;;;;4456832;32;20421;-69
2022/04/14 07:46:50;;;;;;;1.75;1.02;;;15.90;99.90;;;;;;4459095;32;20142;-70
2022/04/14 07:49:15;;;;;;;3.30;1.20;;;15.90;99.90;;;;;;4462042;32;20060;-69
2022/04/14 07:51:41;;;;;;;0.62;0.50;;;15.90;99.90;;;;;;4460327;32;20466;-69
2022/04/14 07:54:07;;;;;;;0.82;0.68;;;15.90;99.90;;;;;;4458029;32;20057;-69
2022/04/14 07:56:33;;;;;;;13.48;0.80;;;16.00;99.90;;;;;;4458193;32;20152;-69
2022/04/14 07:58:59;;;;;;;0.40;0.40;;;16.10;99.90;;;;;;4459718;32;20104;-69
2022/04/14 08:01:25;;;;;;;0.60;0.60;;;16.20;99.90;;;;;;4461057;32;20064;-69
2022/04/14 08:03:51;;;;;;;0.62;0.62;;;16.30;99.90;;;;;;4459755;32;20100;-69
2022/04/14 08:06:16;;;;;;;0.60;0.60;;;16.40;99.90;;;;;;4460192;32;20057;-69
2022/04/14 08:08:42;;;;;;;22.00;0.77;;;16.50;99.90;;;;;;4449819;32;20061;-69
2022/04/14 08:11:08;;;;;;;1.35;0.85;;;16.50;99.90;;;;;;4459234;32;20462;-69
2022/04/14 08:13:37;;;;;;;0.43;0.43;;;16.50;99.90;;;;;;4449098;32;20458;-69
2022/04/14 08:16:06;;;;;;;0.65;0.50;;;16.50;99.90;;;;;;4460973;32;20130;-70
2022/04/14 08:18:34;;;;;;;0.30;0.30;;;16.60;99.90;;;;;;4459365;32;20069;-69
2022/04/14 08:20:59;;;;;;;0.60;0.60;;;16.70;99.90;;;;;;4457910;32;20068;-69
2022/04/14 08:23:25;;;;;;;0.50;0.50;;;16.70;99.90;;;;;;4456978;32;20077;-69
2022/04/14 08:25:50;;;;;;;0.73;0.70;;;16.80;99.90;;;;;;4456908;32;20076;-69
2022/04/14 08:28:16;;;;;;;0.50;0.50;;;16.70;99.90;;;;;;4432870;32;20484;-69
2022/04/14 08:30:42;;;;;;;0.50;0.50;;;16.70;99.90;;;;;;4445642;32;20072;-70
2022/04/14 08:33:10;;;;;;;8.20;2.03;;;16.80;99.90;;;;;;4445261;32;20101;-70
2022/04/14 08:35:36;;;;;;;0.43;0.40;;;16.90;99.90;;;;;;4441687;32;20078;-69
2022/04/14 08:38:03;;;;;;;0.40;0.40;;;16.90;99.90;;;;;;4445274;32;20101;-69
2022/04/14 08:40:35;;;;;;;0.45;0.45;;;17.10;99.90;;;;;;4445921;32;20131;-70
2022/04/14 08:43:03;;;;;;;0.45;0.45;;;17.20;99.90;;;;;;4436340;32;20069;-69
2022/04/14 08:45:31;;;;;;;0.88;0.60;;;17.30;99.90;;;;;;4443793;32;20074;-69
2022/04/14 08:48:00;;;;;;;0.50;0.50;;;17.30;99.90;;;;;;4434295;32;20182;-69
2022/04/14 08:50:26;;;;;;;5.15;1.45;;;17.40;99.90;;;;;;4436274;32;20396;-69
2022/04/14 08:52:52;;;;;;;0.50;0.50;;;17.40;99.90;;;;;;4436388;32;20069;-69
2022/04/14 08:55:18;;;;;;;0.30;0.30;;;17.40;99.90;;;;;;4434562;32;20056;-70
2022/04/14 08:57:44;;;;;;;1.83;1.02;;;17.40;99.90;;;;;;4432280;32;20074;-70
2022/04/14 09:00:12;;;;;;;0.40;0.40;;;17.50;99.90;;;;;;4436723;32;20541;-70
2022/04/14 09:02:39;;;;;;;19.85;2.58;;;17.50;99.90;;;;;;4436885;32;20065;-70
2022/04/14 09:05:06;;;;;;;0.57;0.57;;;17.50;99.90;;;;;;4436126;32;20516;-70
2022/04/14 09:07:33;;;;;;;0.30;0.30;;;17.60;99.90;;;;;;4435401;32;20082;-70
2022/04/14 09:09:58;;;;;;;0.62;0.40;;;17.70;99.90;;;;;;4427639;32;20065;-69
2022/04/14 09:12:25;;;;;;;0.40;0.40;;;17.70;99.90;;;;;;4425016;32;20110;-69
2022/04/14 09:14:51;;;;;;;41.00;1.20;;;17.90;99.90;;;;;;4433619;32;20149;-70
2022/04/14 09:17:16;;;;;;;0.73;0.50;;;17.90;99.90;;;;;;4432718;32;20082;-69
2022/04/14 09:19:42;;;;;;;0.30;0.30;;;18.10;99.90;;;;;;4429316;32;20066;-69
2022/04/14 09:22:13;;;;;;;1.08;0.57;;;18.10;99.90;;;;;;4435532;32;20536;-70
2022/04/14 09:24:49;;;;;;;0.30;0.30;;;18.10;99.90;;;;;;4429559;32;20066;-69
2022/04/14 09:27:32;;;;;;;0.40;0.40;;;18.30;99.90;;;;;;4431944;32;20126;-69
2022/04/14 09:30:03;;;;;;;0.37;0.37;;;18.30;99.90;;;;;;4429372;32;20148;-70
2022/04/14 09:32:32;;;;;;;0.30;0.30;;;18.60;99.90;;;;;;4433711;32;20085;-69
2022/04/14 09:34:59;;;;;;;0.30;0.30;;;18.80;99.90;;;;;;4436703;32;20124;-69
2022/04/14 09:37:26;;;;;;;0.40;0.40;;;18.90;99.90;;;;;;4433812;32;20126;-69
2022/04/14 09:40:00;;;;;;;0.30;0.30;;;19.20;99.90;;;;;;4424457;32;20081;-69
2022/04/14 09:42:28;;;;;;;10.20;0.68;;;19.10;99.90;;;;;;4426119;32;20130;-69
2022/04/14 09:44:54;;;;;;;10.88;1.60;;;19.10;99.90;;;;;;4435152;32;20061;-69
2022/04/14 09:47:25;;;;;;;1.17;0.40;;;19.10;99.90;;;;;;4436562;32;20136;-69
2022/04/14 09:49:51;;;;;;;4.05;0.70;;;19.00;99.90;;;;;;4436500;32;20086;-68
2022/04/14 09:52:16;;;;;;;0.32;0.32;;;19.00;99.90;;;;;;4436637;32;20086;-69
2022/04/14 09:54:42;;;;;;;0.35;0.35;;;18.80;99.90;;;;;;4433353;32;20073;-68
2022/04/14 09:57:10;;;;;;;0.30;0.30;;;18.60;99.90;;;;;;4433182;32;20106;-69
2022/04/14 09:59:37;;;;;;;0.43;0.43;;;18.40;99.90;;;;;;4434053;32;20578;-70
2022/04/14 10:02:18;;;;;;;0.30;0.30;;;18.10;99.90;;;;;;4429534;32;20065;-69
2022/04/14 10:04:45;;;;;;;;;;;18.10;99.90;;;;;;4434377;32;20104;-70
2022/04/14 10:07:16;;;;;;;0.47;0.47;;;18.00;99.90;;;;;;4429840;32;19949;-69
2022/04/14 10:09:44;;;;;;;0.30;0.30;;;17.90;99.90;;;;;;4435773;32;20073;-69
2022/04/14 10:12:21;;;;;;;0.37;0.37;;;17.80;99.90;;;;;;4430868;32;20061;-69
2022/04/14 10:15:04;;;;;;;0.40;0.40;;;17.60;99.90;;;;;;4433336;32;20081;-69
2022/04/14 10:17:33;;;;;;;1.85;1.00;;;17.60;99.90;;;;;;4436782;32;20089;-69
2022/04/14 10:19:59;;;;;;;1.20;0.80;;;17.50;99.90;;;;;;4433090;32;20088;-69
2022/04/14 10:22:26;;;;;;;0.40;0.40;;;17.40;99.90;;;;;;4434728;32;20432;-69
2022/04/14 10:24:54;;;;;;;0.40;0.40;;;17.50;99.90;;;;;;4432226;32;20520;-69
2022/04/14 10:27:20;;;;;;;11.02;1.02;;;17.50;99.90;;;;;;4432463;32;20061;-69
2022/04/14 10:29:47;;;;;;;0.40;0.40;;;17.50;99.90;;;;;;4430843;32;20085;-70
2022/04/14 10:32:13;;;;;;;0.50;0.50;;;17.50;99.90;;;;;;4432140;32;20074;-69
2022/04/14 10:34:40;;;;;;;0.47;0.47;;;17.60;99.90;;;;;;4439074;32;20124;-69
2022/04/14 10:37:13;;;;;;;2.17;1.25;;;17.50;99.90;;;;;;4431405;32;20106;-69
2022/04/14 10:39:45;;;;;;;1.17;0.60;;;17.50;99.90;;;;;;4434804;32;20373;-69
2022/04/14 10:42:12;;;;;;;0.88;0.73;;;17.40;99.90;;;;;;4427431;32;20228;-69
2022/04/14 10:44:47;;;;;;;0.60;0.60;;;17.50;99.90;;;;;;4434797;32;20544;-68
2022/04/14 10:47:33;;;;;;;0.32;0.32;;;17.50;99.90;;;;;;4432425;32;20058;-69
2022/04/14 10:49:59;;;;;;;0.22;0.22;;;17.60;99.90;;;;;;4432489;32;20213;-69
2022/04/14 10:52:26;;;;;;;0.30;0.30;;;17.70;99.90;;;;;;4435196;32;20070;-69
2022/04/14 10:54:57;;;;;;;0.65;0.57;;;17.70;99.90;;;;;;4431418;32;20061;-69
2022/04/14 10:57:39;;;;;;;0.40;0.40;;;17.90;99.90;;;;;;4432897;32;20131;-69
2022/04/14 11:00:35;;;;;;;0.70;0.70;;;17.70;99.90;;;;;;4431365;32;20097;-70
2022/04/14 11:03:02;;;;;;;0.40;0.40;;;17.80;99.90;;;;;;4431566;32;20101;-69
2022/04/14 11:05:52;;;;;;;0.47;0.47;;;17.80;99.90;;;;;;4434965;32;20085;-69
2022/04/14 11:08:26;;;;;;;0.40;0.40;;;17.70;99.90;;;;;;4432308;32;20086;-69
2022/04/14 11:10:55;;;;;;;0.57;0.57;;;17.60;99.90;;;;;;4434829;32;20532;-70
2022/04/14 11:13:21;;;;;;;0.35;0.35;;;17.30;99.90;;;;;;4425604;32;20120;-70
2022/04/14 11:15:46;;;;;;;0.30;0.30;;;17.20;99.90;;;;;;4433213;32;20106;-69
2022/04/14 11:18:12;;;;;;;5.32;1.58;;;17.10;99.90;;;;;;4432713;32;20086;-69
2022/04/14 11:20:44;;;;;;;0.40;0.40;;;17.10;99.90;;;;;;4437008;32;20131;-70
2022/04/14 11:23:18;;;;;;;0.40;0.40;;;17.10;99.90;;;;;;4427906;32;20073;-69
2022/04/14 11:25:47;;;;;;;0.22;0.22;;;17.10;99.90;;;;;;4427850;32;20068;-69
2022/04/14 11:28:19;;;;;;;0.30;0.30;;;16.90;99.90;;;;;;4435447;32;20081;-69
2022/04/14 11:30:45;;;;;;;0.40;0.40;;;16.80;99.90;;;;;;4434638;32;20065;-70
2022/04/14 11:33:14;;;;;;;0.55;0.55;;;16.80;99.90;;;;;;4434798;32;20135;-69
2022/04/14 11:35:45;;;;;;;0.30;0.30;;;16.70;99.90;;;;;;4436892;32;20157;-69
2022/04/14 11:38:51;;;;;;;0.35;0.35;;;16.50;99.90;;;;;;4436787;32;20066;-69
2022/04/14 11:41:42;;;;;;;0.30;0.30;;;16.30;99.90;;;;;;4433489;32;20068;-69
2022/04/14 11:44:11;;;;;;;0.55;0.50;;;16.40;99.90;;;;;;4430979;32;20065;-70
2022/04/14 11:46:41;;;;;;;0.30;0.30;;;16.50;99.90;;;;;;4435081;32;20523;-69
2022/04/14 11:49:09;;;;;;;0.40;0.40;;;16.60;99.90;;;;;;4440570;32;20077;-69
2022/04/14 11:51:41;;;;;;;0.40;0.40;;;16.60;99.90;;;;;;4438084;32;20081;-69
2022/04/14 11:54:07;;;;;;;0.30;0.30;;;16.50;99.90;;;;;;4436087;32;20065;-70
2022/04/14 11:56:32;;;;;;;0.28;0.28;;;16.40;99.90;;;;;;4437340;32;20084;-69
2022/04/14 11:58:58;;;;;;;0.30;0.30;;;16.40;99.90;;;;;;4436497;32;20192;-69
2022/04/14 12:01:23;;;;;;;0.75;0.68;;;16.50;99.90;;;;;;4433324;32;20069;-70
2022/04/14 12:03:49;;;;;;;0.30;0.30;;;16.50;99.90;;;;;;4434209;32;20076;-69
2022/04/14 12:06:17;;;;;;;0.30;0.30;;;16.30;99.90;;;;;;4435665;32;20076;-70
2022/04/14 12:08:54;;;;;;;0.50;0.50;;;16.10;99.90;;;;;;4429440;32;20086;-69
2022/04/14 12:11:20;;;;;;;0.20;0.20;;;16.00;99.90;;;;;;4434255;32;20069;-70
2022/04/14 12:13:47;;;;;;;0.30;0.30;;;16.10;99.90;;;;;;4426346;32;20085;-69
2022/04/14 12:16:14;;;;;;;1.25;0.95;;;15.90;99.90;;;;;;4433862;32;20076;-69
2022/04/14 12:18:41;;;;;;;0.28;0.28;;;15.80;99.90;;;;;;4434982;32;20112;-69
2022/04/14 12:21:16;;;;;;;1.95;0.60;;;15.80;99.90;;;;;;4434025;32;20073;-69
2022/04/14 12:23:47;;;;;;;0.40;0.40;;;15.80;99.90;;;;;;4436867;32;20069;-70
2022/04/14 12:26:13;;;;;;;0.20;0.20;;;15.80;99.90;;;;;;4438251;32;20084;-69
2022/04/14 12:28:38;;;;;;;0.40;0.40;;;15.80;99.90;;;;;;4438534;32;20769;-69
2022/04/14 12:31:12;;;;;;;0.40;0.40;;;15.80;99.90;;;;;;4437667;32;20077;-70
2022/04/14 12:33:38;;;;;;;0.65;0.60;;;15.70;99.90;;;;;;4438434;32;20132;-69
2022/04/14 12:36:06;;;;;;;2.25;0.40;;;15.70;99.90;;;;;;4436243;32;20409;-70
2022/04/14 12:38:43;;;;;;;0.43;0.43;;;15.70;99.90;;;;;;4436512;32;20078;-70
2022/04/14 12:41:14;;;;;;;3.60;0.60;;;15.50;99.90;;;;;;4439141;32;20070;-69
2022/04/14 12:43:40;;;;;;;;;;;15.40;99.90;;;;;;4426467;32;20629;-69
2022/04/14 12:46:26;;;;;;;0.40;0.40;;;15.40;99.90;;;;;;4438184;32;19960;-69
2022/04/14 12:49:14;;;;;;;0.30;0.30;;;15.20;99.90;;;;;;4436584;32;20085;-69